Time;durP1;ratioP1;P1;durP2;ratioP2;P2;SDS_P1;SDS_P2;PMS_P1;PMS_P2;Temp;Humidity;BMP_temperature;BMP_pressure;BME280_temperature;BME280_humidity;BME280_pressure;Samples;Min_cycle;Max_cycle;Signal;HPM_P1;HPM_P2
2021/04/04 00:00:00;;;;;;;;;;;;;;;5.38;60.22;98926.49;1838328;78;22378;-64
2021/04/04 00:02:30;;;;;;;;;;;;;;;5.32;60.18;98925.38;1836639;78;20514;-63
2021/04/04 00:04:57;;;;;;;;;;;;;;;5.26;60.17;98925.09;1838332;78;20215;-63
2021/04/04 00:07:26;;;;;;;;;;;;;;;5.22;60.23;98925.22;1838322;78;20211;-63
2021/04/04 00:09:53;;;;;;;;;;;;;;;5.15;60.50;98924.13;1838343;78;20494;-63
2021/04/04 00:12:20;;;;;;;;;;;;;;;5.09;60.78;98932.02;1838329;78;21127;-63
2021/04/04 00:14:49;;;;;;;;;;;;;;;5.03;61.20;98930.89;1838304;78;20618;-63
2021/04/04 00:17:16;;;;;;;;;;;;;;;4.97;61.47;98924.64;1838383;78;20235;-63
2021/04/04 00:19:44;;;;;;;;;;;;;;;4.93;61.65;98931.20;1838304;78;20495;-63
2021/04/04 00:22:11;;;;;;;;;;;;;;;4.89;62.03;98928.30;1838348;78;20230;-63
2021/04/04 00:24:38;;;;;;;;;;;;;;;4.87;62.28;98931.36;1838314;78;21350;-64
2021/04/04 00:27:06;;;;;;;;;;;;;;;4.84;62.49;98933.13;1838260;78;20216;-63
2021/04/04 00:29:33;;;;;;;;;;;;;;;4.81;62.68;98932.36;1838309;78;20211;-63
2021/04/04 00:32:00;;;;;;;;;;;;;;;4.78;63.00;98932.03;1838314;78;20231;-64
2021/04/04 00:34:28;;;;;;;;;;;;;;;4.76;63.28;98931.66;1838347;78;20270;-62
2021/04/04 00:36:56;;;;;;;;;;;;;;;4.73;63.50;98930.01;1838338;78;21244;-62
2021/04/04 00:39:23;;;;;;;;;;;;;;;4.69;63.85;98932.26;1838150;78;20212;-62
2021/04/04 00:41:50;;;;;;;;;;;;;;;4.65;64.10;98933.22;1833703;78;20239;-62
2021/04/04 00:44:18;;;;;;;;;;;;;;;4.64;64.33;98931.97;1832820;78;20262;-62
2021/04/04 00:46:45;;;;;;;;;;;;;;;4.62;64.37;98934.58;1832715;77;20223;-62
2021/04/04 00:49:13;;;;;;;;;;;;;;;4.55;64.51;98936.93;1832766;78;21200;-64
2021/04/04 00:51:40;;;;;;;;;;;;;;;4.49;64.85;98934.50;1832702;78;20220;-63
2021/04/04 00:54:08;;;;;;;;;;;;;;;4.45;65.13;98931.16;1832715;78;20542;-64
2021/04/04 00:56:35;;;;;;;;;;;;;;;4.42;65.28;98928.65;1832735;78;20223;-64
2021/04/04 00:59:03;;;;;;;;;;;;;;;4.43;65.47;98930.78;1832717;78;20243;-63
2021/04/04 01:01:31;;;;;;;;;;;;;;;4.43;65.53;98926.48;1832723;78;21136;-63
2021/04/04 01:03:59;;;;;;;;;;;;;;;4.46;65.71;98935.86;1832667;78;20587;-64
2021/04/04 01:06:26;;;;;;;;;;;;;;;4.45;65.92;98936.30;1832667;78;20219;-64
2021/04/04 01:08:53;;;;;;;;;;;;;;;4.44;66.29;98939.77;1832730;78;20216;-64
2021/04/04 01:11:23;;;;;;;;;;;;;;;4.40;66.59;98943.73;1832754;78;20628;-64
2021/04/04 01:13:54;;;;;;;;;;;;;;;4.36;66.84;98942.98;1832847;78;20683;-64
2021/04/04 01:16:26;;;;;;;;;;;;;;;4.33;67.13;98943.06;1832663;78;20231;-64
2021/04/04 01:19:13;;;;;;;;;;;;;;;4.31;67.42;98943.97;1832436;78;20239;-64
2021/04/04 01:21:52;;;;;;;;;;;;;;;4.30;67.57;98943.57;1832667;78;20227;-63
2021/04/04 01:24:47;;;;;;;;;;;;;;;4.27;67.16;98943.20;1832754;78;20220;-63
2021/04/04 01:27:44;;;;;;;;;;;;;;;4.22;66.50;98945.47;1832733;78;21209;-63
2021/04/04 01:30:12;;;;;;;;;;;;;;;4.14;66.39;98946.52;1832686;78;20239;-64
2021/04/04 01:32:42;;;;;;;;;;;;;;;4.08;66.43;98954.82;1832799;78;20495;-64
2021/04/04 01:35:11;;;;;;;;;;;;;;;4.03;66.43;98949.77;1832479;78;20224;-63
2021/04/04 01:37:38;;;;;;;;;;;;;;;3.99;66.31;98948.62;1805236;78;20258;-63
2021/04/04 01:40:07;;;;;;;;;;;;;;;3.95;66.03;98954.27;1832693;78;21383;-64
2021/04/04 01:42:35;;;;;;;;;;;;;;;3.91;65.86;98958.23;1829099;78;20240;-63
2021/04/04 01:45:04;;;;;;;;;;;;;;;3.86;65.78;98958.77;1829202;78;20235;-64
2021/04/04 01:47:32;;;;;;;;;;;;;;;3.83;65.84;98962.69;1829227;77;20715;-64
2021/04/04 01:49:59;;;;;;;;;;;;;;;3.78;65.86;98962.38;1829195;78;20240;-64
2021/04/04 01:52:26;;;;;;;;;;;;;;;3.73;66.11;98957.77;1829193;78;21350;-64
2021/04/04 01:54:55;;;;;;;;;;;;;;;3.69;66.39;98961.27;1829131;78;20236;-64
2021/04/04 01:57:22;;;;;;;;;;;;;;;3.65;66.43;98962.66;1829176;78;20215;-64
2021/04/04 01:59:50;;;;;;;;;;;;;;;3.57;66.62;98961.99;1829163;78;20212;-64
2021/04/04 02:02:17;;;;;;;;;;;;;;;3.52;66.84;98965.09;1829225;78;20211;-64
2021/04/04 02:04:44;;;;;;;;;;;;;;;3.46;66.98;98961.77;1829178;78;21272;-64
2021/04/04 02:07:14;;;;;;;;;;;;;;;3.43;67.14;98959.69;1829151;78;20491;-64
2021/04/04 02:09:42;;;;;;;;;;;;;;;3.37;67.24;98964.98;1829200;78;20212;-64
2021/04/04 02:12:11;;;;;;;;;;;;;;;3.29;67.33;98961.27;1829087;78;20239;-64
2021/04/04 02:14:39;;;;;;;;;;;;;;;3.25;67.61;98969.91;1829279;78;20240;-64
2021/04/04 02:17:06;;;;;;;;;;;;;;;3.22;67.74;98966.55;1829266;78;22149;-64
2021/04/04 02:19:34;;;;;;;;;;;;;;;3.19;67.85;98972.63;1829071;78;20216;-64
2021/04/04 02:22:01;;;;;;;;;;;;;;;3.18;68.07;98973.94;1829169;78;20216;-64
2021/04/04 02:24:29;;;;;;;;;;;;;;;3.16;68.35;98979.11;1829183;78;20534;-64
2021/04/04 02:26:57;;;;;;;;;;;;;;;3.16;68.48;98978.26;1829214;78;20211;-64
2021/04/04 02:29:24;;;;;;;;;;;;;;;3.13;68.57;98984.30;1829205;78;21197;-64
2021/04/04 02:32:02;;;;;;;;;;;;;;;3.08;68.67;98981.81;1829099;78;20216;-64
2021/04/04 02:34:34;;;;;;;;;;;;;;;3.05;68.86;98986.16;1829182;78;20487;-64
2021/04/04 02:37:05;;;;;;;;;;;;;;;2.99;69.00;98986.29;1829190;78;20216;-63
2021/04/04 02:39:47;;;;;;;;;;;;;;;2.92;69.06;98991.12;1828196;78;20219;-63
2021/04/04 02:42:20;;;;;;;;;;;;;;;2.85;69.28;98992.94;1831384;78;21188;-64
2021/04/04 02:44:48;;;;;;;;;;;;;;;2.82;69.45;98998.56;1832634;78;20483;-64
2021/04/04 02:47:18;;;;;;;;;;;;;;;2.79;69.65;98989.66;1832626;77;20235;-64
2021/04/04 02:49:45;;;;;;;;;;;;;;;2.79;69.82;98995.64;1832654;78;20211;-63
2021/04/04 02:52:16;;;;;;;;;;;;;;;2.78;70.02;98993.95;1832824;78;20215;-63
2021/04/04 02:54:43;;;;;;;;;;;;;;;2.78;70.21;99002.09;1832828;78;21410;-63
2021/04/04 02:57:10;;;;;;;;;;;;;;;2.78;70.19;99008.07;1832742;78;20590;-63
2021/04/04 02:59:41;;;;;;;;;;;;;;;2.72;70.34;99005.60;1832777;78;20263;-63
2021/04/04 03:02:10;;;;;;;;;;;;;;;2.66;70.61;99011.68;1832823;78;20291;-64
2021/04/04 03:04:37;;;;;;;;;;;;;;;2.64;70.95;99005.72;1805696;78;20223;-63
2021/04/04 03:07:04;;;;;;;;;;;;;;;2.64;71.08;99015.98;1832823;78;21251;-63
2021/04/04 03:09:32;;;;;;;;;;;;;;;2.59;71.20;99017.81;1805406;78;20577;-64
2021/04/04 03:12:00;;;;;;;;;;;;;;;2.55;71.44;99017.45;1832826;78;20215;-63
2021/04/04 03:14:28;;;;;;;;;;;;;;;2.53;71.72;99018.34;1832810;78;20215;-63
2021/04/04 03:16:55;;;;;;;;;;;;;;;2.54;72.02;99014.47;1832853;78;20235;-63
2021/04/04 03:19:23;;;;;;;;;;;;;;;2.56;72.34;99005.02;1832764;78;21198;-63
2021/04/04 03:21:50;;;;;;;;;;;;;;;2.62;72.55;99011.31;1832803;78;20717;-64
2021/04/04 03:24:17;;;;;;;;;;;;;;;2.66;72.73;99006.55;1805407;78;20503;-64
2021/04/04 03:26:44;;;;;;;;;;;;;;;2.68;72.91;99017.64;1832801;78;21073;-63
2021/04/04 03:29:12;;;;;;;;;;;;;;;2.69;73.06;99012.06;1805510;78;20242;-63
2021/04/04 03:31:39;;;;;;;;;;;;;;;2.72;73.15;99012.02;1805329;78;21202;-63
2021/04/04 03:34:06;;;;;;;;;;;;;;;2.71;73.36;99016.31;1832737;78;20220;-63
2021/04/04 03:36:34;;;;;;;;;;;;;;;2.71;73.40;99017.59;1832853;78;20226;-64
2021/04/04 03:39:01;;;;;;;;;;;;;;;2.72;73.42;99023.14;1832742;78;20244;-64
2021/04/04 03:41:29;;;;;;;;;;;;;;;2.72;73.65;99026.99;1833904;78;20226;-64
2021/04/04 03:43:56;;;;;;;;;;;;;;;2.70;73.71;99021.47;1838417;78;21390;-63
2021/04/04 03:46:26;;;;;;;;;;;;;;;2.65;73.85;99030.52;1838264;76;20231;-64
2021/04/04 03:48:54;;;;;;;;;;;;;;;2.61;74.11;99028.88;1838112;78;20219;-64
2021/04/04 03:51:23;;;;;;;;;;;;;;;2.59;74.44;99034.50;1838358;78;20211;-63
2021/04/04 03:53:53;;;;;;;;;;;;;;;2.58;74.60;99028.10;1838379;78;20227;-63
2021/04/04 03:56:32;;;;;;;;;;;;;;;2.55;74.82;99030.72;1838337;78;21261;-64
2021/04/04 03:59:02;;;;;;;;;;;;;;;2.53;75.06;99035.02;1838293;78;20272;-64
2021/04/04 04:01:30;;;;;;;;;;;;;;;2.54;75.42;99040.14;1838327;78;20289;-63
2021/04/04 04:03:58;;;;;;;;;;;;;;;2.56;75.74;99042.24;1838302;78;20234;-63
2021/04/04 04:06:27;;;;;;;;;;;;;;;2.61;75.94;99048.56;1811313;78;20223;-63
2021/04/04 04:08:56;;;;;;;;;;;;;;;2.66;76.03;99048.91;1838355;78;21190;-63
2021/04/04 04:11:23;;;;;;;;;;;;;;;2.70;76.10;99051.00;1838283;78;20211;-63
2021/04/04 04:13:51;;;;;;;;;;;;;;;2.72;76.01;99051.39;1838290;78;20235;-63
2021/04/04 04:16:18;;;;;;;;;;;;;;;2.70;76.08;99051.84;1838311;78;20247;-63
2021/04/04 04:18:46;;;;;;;;;;;;;;;2.72;76.22;99055.23;1838309;78;20211;-63
2021/04/04 04:21:14;;;;;;;;;;;;;;;2.77;76.32;99057.73;1838329;78;21198;-63
2021/04/04 04:23:41;;;;;;;;;;;;;;;2.83;76.39;99063.19;1838255;78;20232;-63
2021/04/04 04:26:14;;;;;;;;;;;;;;;2.91;76.47;99066.05;1838294;78;20266;-63
2021/04/04 04:28:42;;;;;;;;;;;;;;;3.00;76.34;99069.72;1838331;78;20266;-63
2021/04/04 04:31:11;;;;;;;;;;;;;;;3.08;76.33;99068.32;1838336;78;20223;-63
2021/04/04 04:33:39;;;;;;;;;;;;;;;3.16;76.23;99069.48;1838351;78;21371;-63
2021/04/04 04:36:09;;;;;;;;;;;;;;;3.21;76.20;99067.65;1838256;78;20218;-63
2021/04/04 04:38:40;;;;;;;;;;;;;;;3.27;76.00;99073.53;1838322;78;20208;-63
2021/04/04 04:41:07;;;;;;;;;;;;;;;3.31;75.86;99076.47;1838274;78;20215;-63
2021/04/04 04:43:36;;;;;;;;;;;;;;;3.40;75.99;99076.72;1829519;78;20220;-63
2021/04/04 04:46:03;;;;;;;;;;;;;;;3.62;75.92;99081.01;1829291;78;21261;-63
2021/04/04 04:48:31;;;;;;;;;;;;;;;3.85;75.41;99078.83;1829168;77;20223;-63
2021/04/04 04:51:00;;;;;;;;;;;;;;;4.00;75.02;99078.94;1829200;78;20247;-64
2021/04/04 04:53:27;;;;;;;;;;;;;;;4.09;74.65;99075.74;1829216;78;20219;-64
2021/04/04 04:55:54;;;;;;;;;;;;;;;4.11;74.33;99072.70;1829257;78;20239;-64
2021/04/04 04:58:22;;;;;;;;;;;;;;;4.13;74.29;99077.38;1797597;78;21273;-64
2021/04/04 05:00:49;;;;;;;;;;;;;;;4.14;74.04;99079.07;1829130;78;20244;-63
2021/04/04 05:03:16;;;;;;;;;;;;;;;4.15;74.09;99082.05;1829296;78;20215;-63
2021/04/04 05:05:46;;;;;;;;;;;;;;;4.16;74.07;99086.77;1829332;78;20227;-63
2021/04/04 05:08:13;;;;;;;;;;;;;;;4.21;74.15;99084.06;1829220;78;20235;-64
2021/04/04 05:10:40;;;;;;;;;;;;;;;4.26;73.79;99093.38;1829319;78;21383;-63
2021/04/04 05:13:08;;;;;;;;;;;;;;;4.28;73.67;99093.36;1829374;78;20220;-63
2021/04/04 05:15:35;;;;;;;;;;;;;;;4.28;73.58;99095.48;1829277;78;20216;-63
2021/04/04 05:18:04;;;;;;;;;;;;;;;4.34;73.67;99102.23;1829353;78;20527;-63
2021/04/04 05:20:31;;;;;;;;;;;;;;;4.43;73.42;99099.44;1798184;78;20244;-63
2021/04/04 05:22:59;;;;;;;;;;;;;;;4.49;73.19;99098.02;1829338;78;21204;-63
2021/04/04 05:25:26;;;;;;;;;;;;;;;4.49;73.05;99101.45;1829301;78;20375;-63
2021/04/04 05:27:56;;;;;;;;;;;;;;;4.51;73.04;99106.56;1829322;78;20216;-63
2021/04/04 05:30:25;;;;;;;;;;;;;;;4.54;72.83;99105.66;1829332;78;20216;-63
2021/04/04 05:32:52;;;;;;;;;;;;;;;4.50;72.76;99104.43;1829357;78;20208;-63
2021/04/04 05:35:21;;;;;;;;;;;;;;;4.53;72.70;99105.25;1829307;78;21383;-63
2021/04/04 05:37:50;;;;;;;;;;;;;;;4.53;72.79;99100.94;1829239;78;20216;-63
2021/04/04 05:40:23;;;;;;;;;;;;;;;4.56;72.90;99107.76;1829381;78;20228;-63
2021/04/04 05:42:58;;;;;;;;;;;;;;;4.64;72.96;99105.83;1829098;78;20211;-64
2021/04/04 05:45:38;;;;;;;;;;;;;;;4.72;72.77;99104.78;1829246;78;20247;-63
2021/04/04 05:48:21;;;;;;;;;;;;;;;4.76;72.48;99108.98;1829190;77;21195;-64
2021/04/04 05:51:22;;;;;;;;;;;;;;;4.79;72.50;99104.20;1829196;78;20279;-64
2021/04/04 05:54:23;;;;;;;;;;;;;;;4.80;72.33;99105.42;1829201;78;20267;-64
2021/04/04 05:56:53;;;;;;;;;;;;;;;4.81;72.06;99108.84;1762205;78;20224;-64
2021/04/04 05:59:38;;;;;;;;;;;;;;;4.78;72.23;99101.22;1829278;78;20479;-63
2021/04/04 06:02:15;;;;;;;;;;;;;;;4.81;72.48;99104.55;1829217;78;21190;-63
2021/04/04 06:04:56;;;;;;;;;;;;;;;4.90;72.65;99108.64;1829140;78;20212;-64
2021/04/04 06:07:32;;;;;;;;;;;;;;;4.96;72.36;99107.66;1829187;78;20212;-63
2021/04/04 06:10:09;;;;;;;;;;;;;;;4.98;72.26;99106.73;1829171;78;20216;-63
2021/04/04 06:12:43;;;;;;;;;;;;;;;5.00;72.37;99113.11;1829165;78;20243;-63
2021/04/04 06:15:33;;;;;;;;;;;;;;;5.04;72.43;99104.42;1829175;78;20235;-64
2021/04/04 06:18:19;;;;;;;;;;;;;;;5.11;72.41;99111.14;1829103;78;20216;-64
2021/04/04 06:20:56;;;;;;;;;;;;;;;5.24;72.31;99108.64;1829207;78;20507;-63
2021/04/04 06:23:30;;;;;;;;;;;;;;;5.44;72.36;99113.28;1829182;78;20241;-64
2021/04/04 06:26:16;;;;;;;;;;;;;;;5.63;72.20;99114.48;1829288;78;20491;-64
2021/04/04 06:29:02;;;;;;;;;;;;;;;5.94;71.73;99111.94;1829201;78;21481;-64
2021/04/04 06:31:54;;;;;;;;;;;;;;;6.27;71.14;99111.39;1829178;78;20236;-64
2021/04/04 06:34:25;;;;;;;;;;;;;;;6.51;69.84;99115.83;1829176;78;20239;-64
2021/04/04 06:37:20;;;;;;;;;;;;;;;6.66;68.43;99123.99;1827079;78;37530;-63
2021/04/04 06:40:11;;;;;;;;;;;;;;;6.73;68.04;99120.33;1828836;78;20243;-64
2021/04/04 06:43:03;;;;;;;;;;;;;;;6.73;67.42;99117.30;1829030;78;22117;-64
2021/04/04 06:46:01;;;;;;;;;;;;;;;6.65;66.83;99129.61;1829142;78;20220;-64
2021/04/04 06:48:59;;;;;;;;;;;;;;;6.49;66.82;99126.66;1829018;77;20254;-63
2021/04/04 06:51:42;;;;;;;;;;;;;;;6.39;67.06;99132.16;1829158;78;20649;-63
2021/04/04 06:54:23;;;;;;;;;;;;;;;6.25;67.11;99135.13;1792797;80;20255;-63
2021/04/04 06:57:01;;;;;;;;;;;;;;;6.13;67.21;99135.05;1786590;80;21157;-63
2021/04/04 06:59:50;;;;;;;;;;;;;;;6.05;67.36;99142.59;1792662;80;20290;-64
2021/04/04 07:02:19;;;;;;;;;;;;;;;6.01;67.72;99139.70;1769282;80;20213;-64
2021/04/04 07:05:06;;;;;;;;;;;;;;;6.07;67.68;99145.98;1782377;80;20242;-65
2021/04/04 07:07:37;;;;;;;;;;;;;;;6.11;67.70;99138.12;1781628;80;20243;-63
2021/04/04 07:10:35;;;;;;;;;;;;;;;6.20;67.78;99139.13;1782333;80;21211;-63
2021/04/04 07:13:25;;;;;;;;;;;;;;;6.34;67.71;99143.91;1782336;80;20223;-64
2021/04/04 07:16:07;;;;;;;;;;;;;;;6.44;67.54;99138.01;1782446;80;20522;-65
2021/04/04 07:18:57;;;;;;;;;;;;;;;6.63;67.28;99137.84;1782396;80;20234;-64
2021/04/04 07:21:41;;;;;;;;;;;;;;;6.82;66.71;99138.97;1782404;80;20238;-63
2021/04/04 07:24:38;;;;;;;;;;;;;;;7.04;66.21;99126.20;1782476;80;20899;-64
2021/04/04 07:27:29;;;;;;;;;;;;;;;7.27;65.10;99142.26;1782444;80;20210;-64
2021/04/04 07:32:59;;;;;;;;;;;;;;;7.61;63.31;99141.50;1782429;80;20246;-64
2021/04/04 07:35:43;;;;;;;;;;;;;;;7.59;62.21;99147.66;1754479;80;20222;-64
2021/04/04 07:38:17;;;;;;;;;;;;;;;7.52;62.16;99139.70;1782473;80;21215;-65
2021/04/04 07:40:48;;;;;;;;;;;;;;;7.49;62.01;99141.94;1782611;80;20648;-65
2021/04/04 07:43:22;;;;;;;;;;;;;;;7.48;61.07;99141.54;1772030;80;20224;-63
2021/04/04 07:46:06;;;;;;;;;;;;;;;7.51;60.52;99148.36;1756372;81;20217;-64
2021/04/04 07:48:50;;;;;;;;;;;;;;;7.55;61.23;99137.85;1756646;80;20225;-63
2021/04/04 07:51:23;;;;;;;;;;;;;;;7.79;60.11;99149.10;1756754;81;21190;-66
2021/04/04 07:54:05;;;;;;;;;;;;;;;8.04;58.70;99143.02;1756687;81;21021;-64
2021/04/04 07:57:02;;;;;;;;;;;;;;;8.08;58.63;99139.42;1756726;81;20220;-65
2021/04/04 07:59:38;;;;;;;;;;;;;;;8.11;58.35;99144.50;1756697;81;20248;-64
2021/04/04 08:02:18;;;;;;;;;;;;;;;8.19;58.33;99151.06;1756743;81;20256;-64
2021/04/04 08:04:49;;;;;;;;;;;;;;;8.36;58.47;99141.88;1756752;81;21269;-64
2021/04/04 08:07:24;;;;;;;;;;;;;;;8.41;58.17;99156.78;1756615;81;20240;-65
2021/04/04 08:10:09;;;;;;;;;;;;;;;8.38;57.92;99155.63;1756708;81;20237;-64
2021/04/04 08:12:47;;;;;;;;;;;;;;;8.30;58.07;99155.87;1731601;81;20237;-64
2021/04/04 08:15:38;;;;;;;;;;;;;;;8.29;57.97;99150.30;1756751;81;20217;-64
2021/04/04 08:18:05;;;;;;;;;;;;;;;8.41;57.53;99152.45;1756756;81;21214;-64
2021/04/04 08:20:45;;;;;;;;;;;;;;;8.64;56.17;99164.09;1731137;81;20241;-64
2021/04/04 08:23:22;;;;;;;;;;;;;;;8.70;55.32;99144.86;1756671;81;20220;-63
2021/04/04 08:25:55;;;;;;;;;;;;;;;8.76;55.37;99154.16;1722884;81;20547;-64
2021/04/04 08:28:41;;;;;;;;;;;;;;;8.83;55.13;99147.81;1756714;81;20504;-64
2021/04/04 08:31:28;;;;;;;;;;;;;;;8.82;54.78;99143.08;1756712;81;21382;-64
2021/04/04 08:34:02;;;;;;;;;;;;;;;8.79;54.77;99148.37;1756674;81;21080;-63
2021/04/04 08:36:32;;;;;;;;;;;;;;;8.72;54.55;99139.17;1756650;81;20229;-65
2021/04/04 08:39:00;;;;;;;;;;;;;;;8.71;54.35;99140.53;1756645;81;20283;-65
2021/04/04 08:41:31;;;;;;;;;;;;;;;8.77;54.20;99145.03;1756710;81;20221;-64
2021/04/04 08:44:00;;;;;;;;;;;;;;;8.83;54.10;99135.69;1756650;80;22170;-64
2021/04/04 08:46:39;;;;;;;;;;;;;;;8.95;54.36;99141.70;1756567;80;20225;-64
2021/04/04 08:49:06;;;;;;;;;;;;;;;9.10;53.45;99148.47;1756646;81;20224;-64
2021/04/04 08:51:39;;;;;;;;;;;;;;;9.10;53.37;99144.58;1731180;81;20221;-64
2021/04/04 08:54:10;;;;;;;;;;;;;;;9.07;53.34;99143.40;1756687;81;20241;-64
2021/04/04 08:56:41;;;;;;;;;;;;;;;9.10;52.47;99154.50;1756662;81;21159;-65
2021/04/04 08:59:10;;;;;;;;;;;;;;;9.16;52.04;99141.74;1756574;81;20232;-63
2021/04/04 09:01:38;;;;;;;;;;;;;;;9.26;51.75;99141.73;1756601;81;20312;-65
2021/04/04 09:04:07;;;;;;;;;;;;;;;9.36;51.71;99139.63;1756663;81;20222;-65
2021/04/04 09:06:39;;;;;;;;;;;;;;;9.40;51.35;99142.45;1756779;81;20485;-66
2021/04/04 09:09:22;;;;;;;;;;;;;;;9.35;51.41;99140.53;1756322;81;22170;-64
2021/04/04 09:11:51;;;;;;;;;;;;;;;9.32;51.54;99141.50;1756630;81;20264;-65
2021/04/04 09:14:19;;;;;;;;;;;;;;;9.43;50.78;99131.50;1756620;81;20224;-65
2021/04/04 09:16:55;;;;;;;;;;;;;;;9.53;50.48;99143.64;1756730;81;20492;-65
2021/04/04 09:19:33;;;;;;;;;;;;;;;9.50;50.74;99131.64;1756630;81;20260;-66
2021/04/04 09:22:04;;;;;;;;;;;;;;;9.41;50.95;99127.27;1756664;81;21198;-63
2021/04/04 09:24:33;;;;;;;;;;;;;;;9.37;50.53;99136.12;1756331;81;20221;-63
2021/04/04 09:27:00;;;;;;;;;;;;;;;9.39;50.43;99126.52;1731158;81;20238;-64
2021/04/04 09:29:29;;;;;;;;;;;;;;;9.49;49.27;99127.80;1756571;81;20268;-63
2021/04/04 09:31:56;;;;;;;;;;;;;;;9.65;49.00;99124.94;1756651;81;20216;-65
2021/04/04 09:34:24;;;;;;;;;;;;;;;9.85;48.81;99121.47;1756718;81;22104;-64
2021/04/04 09:36:52;;;;;;;;;;;;;;;10.06;48.64;99123.12;1756526;81;20240;-66
2021/04/04 09:39:27;;;;;;;;;;;;;;;10.31;47.86;99129.39;1756578;80;20256;-64
2021/04/04 09:41:55;;;;;;;;;;;;;;;10.34;46.43;99123.59;1731262;81;20684;-63
2021/04/04 09:44:29;;;;;;;;;;;;;;;10.20;46.14;99121.22;1772362;80;20256;-63
2021/04/04 09:46:59;;;;;;;;;;;;;;;10.06;46.58;99124.42;1782552;79;22273;-63
2021/04/04 09:49:52;;;;;;;;;;;;;;;10.05;46.41;99118.83;1782447;80;20226;-64
2021/04/04 09:52:24;;;;;;;;;;;;;;;10.21;46.49;99115.95;1781864;80;20226;-64
2021/04/04 09:55:08;;;;;;;;;;;;;;;10.46;46.85;99127.83;1782475;80;20219;-64
2021/04/04 09:57:42;;;;;;;;;;;;;;;10.48;46.82;99152.01;1778109;80;20218;-64
2021/04/04 10:00:26;;;;;;;;;;;;;;;10.26;46.67;99130.89;1774330;80;20523;-64
2021/04/04 10:02:56;;;;;;;;;;;;;;;10.09;45.10;99126.04;1782536;80;20488;-63
2021/04/04 10:05:34;;;;;;;;;;;;;;;10.07;45.01;99121.36;1782465;80;20226;-64
2021/04/04 10:08:25;;;;;;;;;;;;;;;10.10;45.34;99119.48;1782498;80;20529;-63
2021/04/04 10:10:57;;;;;;;;;;;;;;;10.23;45.86;99119.33;1782487;80;20227;-63
2021/04/04 10:13:26;;;;;;;;;;;;;;;10.47;44.66;99122.56;1782470;80;21201;-64
2021/04/04 10:15:54;;;;;;;;;;;;;;;10.59;42.82;99122.47;1782400;80;20214;-63
2021/04/04 10:18:23;;;;;;;;;;;;;;;10.55;43.21;99126.12;1782483;80;20493;-64
2021/04/04 10:20:55;;;;;;;;;;;;;;;10.45;44.47;99127.44;1782361;80;20214;-64
2021/04/04 10:23:30;;;;;;;;;;;;;;;10.38;45.06;99123.47;1782537;80;20218;-64
2021/04/04 10:26:07;;;;;;;;;;;;;;;10.44;44.71;99119.26;1782538;80;22124;-63
2021/04/04 10:28:48;;;;;;;;;;;;;;;10.57;44.36;99125.14;1782420;80;20218;-64
2021/04/04 10:31:16;;;;;;;;;;;;;;;10.74;43.64;99126.09;1782567;80;20486;-64
2021/04/04 10:33:43;;;;;;;;;;;;;;;10.73;44.23;99123.11;1782447;80;20658;-63
2021/04/04 10:36:17;;;;;;;;;;;;;;;10.60;45.13;99124.97;1779702;80;20223;-63
2021/04/04 10:38:45;;;;;;;;;;;;;;;10.45;45.37;99124.84;1782442;80;22199;-63
2021/04/04 10:41:14;;;;;;;;;;;;;;;10.29;46.01;99116.92;1782323;80;20218;-63
2021/04/04 10:43:45;;;;;;;;;;;;;;;10.23;45.72;99118.48;1753662;80;20298;-64
2021/04/04 10:46:15;;;;;;;;;;;;;;;10.21;45.69;99126.35;1782514;80;20599;-64
2021/04/04 10:48:47;;;;;;;;;;;;;;;10.21;46.13;99122.45;1782478;80;20222;-63
2021/04/04 10:51:16;;;;;;;;;;;;;;;10.20;47.27;99126.41;1782507;80;22097;-63
2021/04/04 10:53:43;;;;;;;;;;;;;;;10.25;47.67;99134.86;1782484;80;20708;-64
2021/04/04 10:56:12;;;;;;;;;;;;;;;10.27;47.50;99134.33;1782368;80;20510;-64
2021/04/04 10:58:40;;;;;;;;;;;;;;;10.23;47.52;99130.18;1782489;80;20257;-65
2021/04/04 11:01:10;;;;;;;;;;;;;;;10.19;47.90;99129.47;1782413;80;20238;-63
2021/04/04 11:03:40;;;;;;;;;;;;;;;10.22;47.54;99142.33;1782457;80;22756;-64
2021/04/04 11:06:08;;;;;;;;;;;;;;;10.13;46.33;99136.69;1782222;80;20218;-63
2021/04/04 11:08:36;;;;;;;;;;;;;;;10.06;46.68;99140.46;1782391;80;20223;-63
2021/04/04 11:11:04;;;;;;;;;;;;;;;10.02;47.02;99138.00;1782422;80;20243;-63
2021/04/04 11:13:33;;;;;;;;;;;;;;;10.01;47.28;99134.16;1782577;80;20223;-64
2021/04/04 11:16:03;;;;;;;;;;;;;;;9.94;47.69;99135.37;1782575;80;21196;-64
2021/04/04 11:18:48;;;;;;;;;;;;;;;9.95;47.45;99134.45;1782542;80;20214;-64
2021/04/04 11:21:23;;;;;;;;;;;;;;;9.95;46.51;99134.00;1782550;80;20222;-63
2021/04/04 11:23:54;;;;;;;;;;;;;;;9.81;47.46;99141.53;1782601;80;20223;-64
2021/04/04 11:26:34;;;;;;;;;;;;;;;9.67;47.44;99141.30;1782605;80;20215;-63
2021/04/04 11:29:12;;;;;;;;;;;;;;;9.54;48.13;99142.73;1782196;80;21187;-64
2021/04/04 11:31:45;;;;;;;;;;;;;;;9.44;49.06;99140.13;1782651;80;20287;-64
2021/04/04 11:34:33;;;;;;;;;;;;;;;9.26;49.22;99152.12;1782534;80;20490;-65
2021/04/04 11:37:03;;;;;;;;;;;;;;;9.06;49.78;99143.85;1782597;80;20230;-64
2021/04/04 11:39:30;;;;;;;;;;;;;;;9.01;49.73;99141.05;1782397;80;20298;-65
2021/04/04 11:42:00;;;;;;;;;;;;;;;9.10;50.23;99139.39;1782603;80;22262;-63
2021/04/04 11:44:31;;;;;;;;;;;;;;;9.23;49.48;99136.22;1771617;80;20221;-63
2021/04/04 11:47:04;;;;;;;;;;;;;;;9.13;50.54;99143.16;1756711;80;20296;-63
2021/04/04 11:49:41;;;;;;;;;;;;;;;8.92;50.45;99145.71;1756688;81;20224;-64
2021/04/04 11:52:13;;;;;;;;;;;;;;;8.69;49.96;99141.88;1756720;81;20268;-66
2021/04/04 11:54:49;;;;;;;;;;;;;;;8.52;50.46;99137.80;1756692;81;20217;-64
2021/04/04 11:57:26;;;;;;;;;;;;;;;8.50;50.61;99133.13;1756687;81;20224;-65
2021/04/04 12:00:10;;;;;;;;;;;;;;;8.55;50.69;99133.34;1756685;81;20216;-63
2021/04/04 12:02:39;;;;;;;;;;;;;;;8.69;49.52;99135.40;1745937;81;20249;-65
2021/04/04 12:05:11;;;;;;;;;;;;;;;8.77;49.71;99128.17;1731301;81;20241;-64
2021/04/04 12:07:44;;;;;;;;;;;;;;;8.81;49.44;99125.83;1756834;81;21352;-63
2021/04/04 12:10:14;;;;;;;;;;;;;;;8.79;48.10;99138.48;1752216;81;20213;-64
2021/04/04 12:12:41;;;;;;;;;;;;;;;8.70;48.95;99124.58;1756643;81;20225;-64
2021/04/04 12:15:12;;;;;;;;;;;;;;;8.67;48.76;99125.53;1756637;81;20217;-64
2021/04/04 12:17:49;;;;;;;;;;;;;;;8.68;49.01;99131.56;1756796;81;20497;-64
2021/04/04 12:20:19;;;;;;;;;;;;;;;8.76;49.14;99117.41;1756284;81;21204;-65
2021/04/04 12:22:46;;;;;;;;;;;;;;;8.92;48.47;99108.11;1756588;81;20237;-64
2021/04/04 12:25:20;;;;;;;;;;;;;;;9.02;48.56;99102.52;1756648;80;20220;-63
2021/04/04 12:27:48;;;;;;;;;;;;;;;9.14;47.81;99099.45;1756772;81;20228;-64
2021/04/04 12:30:33;;;;;;;;;;;;;;;9.24;47.20;99102.03;1756793;81;20224;-64
2021/04/04 12:33:03;;;;;;;;;;;;;;;9.25;47.12;99095.48;1756777;81;22266;-63
2021/04/04 12:35:30;;;;;;;;;;;;;;;9.28;46.47;99100.55;1756709;81;20492;-63
2021/04/04 12:37:57;;;;;;;;;;;;;;;9.28;46.17;99105.73;1756657;81;20225;-65
2021/04/04 12:40:25;;;;;;;;;;;;;;;9.32;45.87;99091.73;1756617;81;20311;-63
2021/04/04 12:42:56;;;;;;;;;;;;;;;9.38;46.12;99092.39;1756672;81;20216;-65
2021/04/04 12:45:24;;;;;;;;;;;;;;;9.44;46.42;99094.70;1756591;80;21308;-63
2021/04/04 12:47:51;;;;;;;;;;;;;;;9.45;46.53;99088.60;1756547;80;20217;-63
2021/04/04 12:50:22;;;;;;;;;;;;;;;9.46;45.77;99088.98;1756668;81;20241;-64
2021/04/04 12:52:51;;;;;;;;;;;;;;;9.44;44.84;99084.31;1756637;81;20217;-63
2021/04/04 12:55:30;;;;;;;;;;;;;;;9.40;45.00;99091.84;1756689;81;20228;-64
2021/04/04 12:58:00;;;;;;;;;;;;;;;9.43;45.21;99082.17;1756597;80;21218;-64
2021/04/04 13:00:33;;;;;;;;;;;;;;;9.57;45.42;99079.00;1756570;81;20241;-63
2021/04/04 13:03:13;;;;;;;;;;;;;;;9.74;45.27;99083.45;1756234;81;20220;-64
2021/04/04 13:05:45;;;;;;;;;;;;;;;9.83;45.20;99083.88;1756653;81;20225;-63
2021/04/04 13:08:26;;;;;;;;;;;;;;;9.80;44.28;99083.16;1756683;81;20233;-64
2021/04/04 13:10:56;;;;;;;;;;;;;;;9.70;42.68;99084.50;1756692;80;22221;-64
2021/04/04 13:13:28;;;;;;;;;;;;;;;9.58;43.68;99081.53;1756593;81;20217;-63
2021/04/04 13:15:58;;;;;;;;;;;;;;;9.54;44.31;99083.03;1756695;81;20273;-63
2021/04/04 13:18:33;;;;;;;;;;;;;;;9.51;45.01;99083.16;1756672;81;20220;-64
2021/04/04 13:21:04;;;;;;;;;;;;;;;9.51;45.21;99087.05;1756667;81;20208;-64
2021/04/04 13:23:36;;;;;;;;;;;;;;;9.51;45.12;99092.24;1756673;81;21206;-64
2021/04/04 13:26:10;;;;;;;;;;;;;;;9.44;45.84;99098.14;1756679;80;20216;-65